Time;durP1;ratioP1;P1;durP2;ratioP2;P2;SDS_P1;SDS_P2;PMS_P1;PMS_P2;Temp;Humidity;BMP_temperature;BMP_pressure;BME280_temperature;BME280_humidity;BME280_pressure;Samples;Min_cycle;Max_cycle;Signal;HPM_P1;HPM_P2
2024/01/23 00:02:21;;;;;;;5.07;1.48;;;6.30;1.00;;;;;;7377993;19;20014;-71
2024/01/23 00:04:51;;;;;;;3.70;1.35;;;6.30;1.00;;;;;;7378278;19;20007;-71
2024/01/23 00:07:24;;;;;;;3.20;1.30;;;6.20;1.00;;;;;;7378883;19;20007;-71
2024/01/23 00:09:54;;;;;;;6.20;1.50;;;6.20;1.00;;;;;;7379688;19;20017;-71
2024/01/23 00:12:24;;;;;;;5.80;1.60;;;6.20;1.00;;;;;;7376335;19;20006;-71
2024/01/23 00:14:54;;;;;;;7.40;1.60;;;6.20;1.00;;;;;;7377550;19;20044;-70
2024/01/23 00:17:25;;;;;;;4.15;2.03;;;6.80;1.00;;;;;;7378355;19;20031;-71
2024/01/23 00:19:55;;;;;;;7.13;1.50;;;6.80;1.00;;;;;;7379151;19;20019;-72
2024/01/23 00:22:28;;;;;;;5.40;1.48;;;6.90;1.00;;;;;;7379774;19;20011;-70
2024/01/23 00:24:59;;;;;;;6.85;1.90;;;6.90;1.00;;;;;;7379203;19;20090;-72
2024/01/23 00:27:29;;;;;;;6.93;2.30;;;6.80;1.00;;;;;;7379331;19;20068;-70
2024/01/23 00:29:59;;;;;;;4.63;1.30;;;7.00;1.00;;;;;;7377435;19;20010;-72
2024/01/23 00:32:30;;;;;;;7.35;1.58;;;7.10;1.00;;;;;;7379032;19;20014;-71
2024/01/23 00:35:01;;;;;;;4.35;1.30;;;7.00;1.00;;;;;;7378520;19;20019;-71
2024/01/23 00:37:34;;;;;;;6.93;1.45;;;7.10;1.00;;;;;;7378650;19;20029;-70
2024/01/23 00:40:04;;;;;;;6.93;1.80;;;7.10;1.00;;;;;;7378516;19;20033;-71
2024/01/23 00:42:34;;;;;;;5.63;1.77;;;7.00;1.00;;;;;;7379921;19;20026;-71
2024/01/23 00:45:05;;;;;;;6.72;1.50;;;7.00;1.00;;;;;;7377745;19;20015;-71
2024/01/23 00:47:35;;;;;;;5.35;1.33;;;7.10;1.00;;;;;;7378993;19;20010;-71
2024/01/23 00:50:05;;;;;;;4.68;1.48;;;7.10;1.00;;;;;;7376598;19;20423;-70
2024/01/23 00:52:38;;;;;;;7.78;1.45;;;7.10;1.00;;;;;;7380090;19;20081;-70
2024/01/23 00:55:09;;;;;;;7.05;1.52;;;7.10;1.00;;;;;;7378325;19;20081;-71
2024/01/23 00:57:39;;;;;;;8.02;1.48;;;7.20;1.00;;;;;;7377506;19;20094;-70
2024/01/23 01:00:10;;;;;;;11.60;1.38;;;7.10;1.00;;;;;;7377434;19;20043;-70
2024/01/23 01:02:40;;;;;;;8.43;1.85;;;7.20;1.00;;;;;;7377693;19;20022;-70
2024/01/23 01:05:11;;;;;;;7.80;1.65;;;7.20;1.00;;;;;;7377096;19;20089;-70
2024/01/23 01:07:43;;;;;;;7.60;1.60;;;7.20;1.00;;;;;;7378497;19;20027;-70
2024/01/23 01:10:13;;;;;;;7.82;1.50;;;7.30;1.00;;;;;;7383015;19;20007;-70
2024/01/23 01:12:43;;;;;;;6.88;1.70;;;7.30;1.00;;;;;;7377535;19;20007;-70
2024/01/23 01:15:13;;;;;;;8.52;1.83;;;7.50;1.00;;;;;;7376910;19;20006;-70
2024/01/23 01:17:43;;;;;;;5.97;2.00;;;7.40;1.00;;;;;;7376851;19;20007;-70
2024/01/23 01:20:14;;;;;;;5.45;1.58;;;7.50;1.00;;;;;;7375431;19;20007;-70
2024/01/23 01:22:46;;;;;;;5.32;1.85;;;7.40;1.00;;;;;;7377862;19;20012;-70
2024/01/23 01:25:17;;;;;;;8.38;1.80;;;7.50;1.00;;;;;;7374058;19;20010;-69
2024/01/23 01:27:47;;;;;;;6.53;1.70;;;7.50;1.00;;;;;;7379047;19;20016;-70
2024/01/23 01:30:17;;;;;;;10.02;2.20;;;7.60;1.00;;;;;;7375700;19;20006;-69
2024/01/23 01:32:47;;;;;;;4.47;1.73;;;7.50;1.00;;;;;;7375608;19;20082;-70
2024/01/23 01:35:17;;;;;;;7.82;1.30;;;7.50;1.00;;;;;;7376161;19;20037;-70
2024/01/23 01:37:50;;;;;;;5.95;1.75;;;7.50;1.00;;;;;;7374579;19;20418;-70
2024/01/23 01:40:21;;;;;;;10.05;2.05;;;7.40;1.00;;;;;;7376641;19;20023;-70
2024/01/23 01:42:51;;;;;;;6.60;2.15;;;7.50;1.00;;;;;;7376514;19;20010;-69
2024/01/23 01:45:21;;;;;;;7.45;1.83;;;7.50;1.00;;;;;;7373772;19;20021;-71
2024/01/23 01:47:51;;;;;;;7.10;2.10;;;7.50;1.00;;;;;;7373017;19;20017;-71
2024/01/23 01:50:22;;;;;;;9.50;2.28;;;7.40;1.00;;;;;;7374915;19;20006;-72
2024/01/23 01:52:54;;;;;;;9.18;1.92;;;7.30;1.00;;;;;;7378399;19;20022;-71
2024/01/23 01:55:25;;;;;;;9.35;2.10;;;7.40;1.00;;;;;;7375983;19;20074;-70
2024/01/23 01:57:54;;;;;;;5.25;1.73;;;7.30;1.00;;;;;;7376647;19;20018;-70
2024/01/23 02:00:25;;;;;;;7.72;2.20;;;7.30;1.00;;;;;;7375562;19;20002;-70
2024/01/23 02:02:55;;;;;;;9.70;2.08;;;7.10;1.00;;;;;;7376912;19;20010;-70
2024/01/23 02:05:25;;;;;;;6.40;1.58;;;7.20;1.00;;;;;;7376652;19;20094;-71
2024/01/23 02:07:58;;;;;;;4.53;1.55;;;7.20;1.00;;;;;;7376983;19;20467;-70
2024/01/23 02:10:28;;;;;;;10.45;1.92;;;7.20;1.00;;;;;;7375067;19;20082;-71
2024/01/23 02:12:58;;;;;;;9.07;2.03;;;7.20;1.00;;;;;;7375300;19;20019;-71
2024/01/23 02:15:28;;;;;;;11.88;2.20;;;7.20;1.00;;;;;;7376034;19;20011;-71
2024/01/23 02:17:58;;;;;;;8.95;2.38;;;7.20;1.00;;;;;;7373699;19;20351;-70
2024/01/23 02:20:29;;;;;;;8.48;2.17;;;7.10;1.00;;;;;;7374001;19;20416;-71
2024/01/23 02:23:01;;;;;;;12.77;2.72;;;7.20;1.00;;;;;;7374863;19;20018;-70
2024/01/23 02:25:34;;;;;;;12.65;2.97;;;7.10;1.00;;;;;;7374771;19;20018;-70
2024/01/23 02:28:04;;;;;;;8.50;2.30;;;7.20;1.00;;;;;;7374420;19;20075;-70
2024/01/23 02:30:35;;;;;;;15.05;2.50;;;7.20;1.00;;;;;;7374638;19;20014;-70
2024/01/23 02:33:05;;;;;;;11.98;2.95;;;7.20;1.00;;;;;;7375002;19;20006;-69
2024/01/23 02:35:37;;;;;;;13.32;2.97;;;7.30;1.00;;;;;;7374733;19;20018;-70
2024/01/23 02:38:08;;;;;;;10.70;2.78;;;7.30;1.00;;;;;;7373688;19;20394;-70
2024/01/23 02:40:41;;;;;;;11.30;2.90;;;7.40;1.00;;;;;;7374284;19;20809;-70
2024/01/23 02:43:11;;;;;;;13.25;3.00;;;7.30;1.00;;;;;;7375085;19;20022;-70
2024/01/23 02:45:41;;;;;;;12.20;3.00;;;7.20;1.00;;;;;;7381038;19;20015;-69
2024/01/23 02:48:11;;;;;;;11.60;2.47;;;7.10;1.00;;;;;;7380875;19;20011;-70
2024/01/23 02:50:41;;;;;;;19.15;3.35;;;7.00;1.00;;;;;;7380939;19;20011;-70
2024/01/23 02:53:11;;;;;;;13.88;3.33;;;7.00;1.00;;;;;;7380062;19;20006;-70
2024/01/23 02:55:44;;;;;;;10.40;2.58;;;7.00;1.00;;;;;;7380939;19;20014;-70
2024/01/23 02:58:15;;;;;;;10.27;2.77;;;6.90;1.00;;;;;;7380079;19;20014;-70
2024/01/23 03:00:45;;;;;;;18.60;3.25;;;7.00;1.00;;;;;;7380464;19;20220;-70
2024/01/23 03:03:15;;;;;;;12.88;2.85;;;7.10;1.00;;;;;;7381966;19;20015;-70
2024/01/23 03:05:46;;;;;;;16.55;2.85;;;7.10;1.00;;;;;;7376969;19;20011;-69
2024/01/23 03:08:16;;;;;;;13.13;2.65;;;7.10;1.00;;;;;;7382263;19;20496;-70
2024/01/23 03:10:48;;;;;;;12.80;2.80;;;7.00;1.00;;;;;;7380694;19;20090;-70
2024/01/23 03:13:18;;;;;;;13.48;3.05;;;7.10;1.00;;;;;;7380631;19;20010;-70
2024/01/23 03:15:49;;;;;;;15.25;3.05;;;7.00;1.00;;;;;;7381563;19;20013;-70
2024/01/23 03:18:19;;;;;;;13.57;3.13;;;7.00;1.00;;;;;;7381017;19;20039;-70
2024/01/23 03:20:50;;;;;;;15.07;4.10;;;7.10;1.00;;;;;;7382036;19;20467;-70
2024/01/23 03:23:20;;;;;;;12.70;2.97;;;7.10;1.00;;;;;;7383586;19;20018;-69
2024/01/23 03:25:53;;;;;;;16.90;3.15;;;7.10;1.00;;;;;;7382433;19;20023;-70
2024/01/23 03:28:23;;;;;;;13.40;3.00;;;7.20;1.00;;;;;;7381949;19;20025;-70
2024/01/23 03:30:53;;;;;;;15.57;3.95;;;7.10;1.00;;;;;;7376853;19;20011;-70
2024/01/23 03:33:23;;;;;;;15.52;4.28;;;7.20;1.00;;;;;;7381408;19;20035;-70
2024/01/23 03:35:54;;;;;;;14.15;3.20;;;7.30;1.00;;;;;;7387704;19;20058;-70
2024/01/23 03:38:27;;;;;;;15.52;2.95;;;7.20;1.00;;;;;;7378041;19;20015;-70
2024/01/23 03:40:59;;;;;;;17.38;3.58;;;7.30;1.00;;;;;;7379422;19;20011;-71
2024/01/23 03:43:29;;;;;;;14.48;3.13;;;7.30;1.00;;;;;;7379367;19;20006;-70
2024/01/23 03:45:59;;;;;;;15.73;3.38;;;7.20;1.00;;;;;;7379269;19;20011;-70
2024/01/23 03:48:29;;;;;;;11.23;2.78;;;7.20;1.00;;;;;;7378959;19;20023;-70
2024/01/23 03:51:00;;;;;;;13.85;2.75;;;7.30;1.00;;;;;;7379046;19;20010;-69
2024/01/23 03:53:30;;;;;;;10.18;3.42;;;7.30;1.00;;;;;;7380562;19;20482;-69
2024/01/23 03:56:03;;;;;;;10.30;3.20;;;7.30;1.00;;;;;;7378978;19;20017;-69
2024/01/23 03:58:33;;;;;;;12.05;2.35;;;7.30;1.00;;;;;;7379127;19;20010;-69
2024/01/23 04:01:03;;;;;;;14.55;2.90;;;7.30;1.00;;;;;;7375507;19;20029;-70
2024/01/23 04:03:35;;;;;;;11.50;3.10;;;7.40;1.00;;;;;;7380071;19;20040;-69
2024/01/23 04:06:05;;;;;;;9.25;2.78;;;7.20;1.00;;;;;;7378437;19;20487;-70
2024/01/23 04:08:35;;;;;;;13.63;2.70;;;7.40;1.00;;;;;;7379939;19;20035;-70
2024/01/23 04:11:08;;;;;;;9.73;2.75;;;7.30;1.00;;;;;;7375688;19;20017;-68
2024/01/23 04:13:38;;;;;;;18.73;3.13;;;7.30;1.00;;;;;;7379469;19;20475;-68
2024/01/23 04:16:08;;;;;;;13.90;3.30;;;7.40;1.00;;;;;;7375096;19;20013;-69
2024/01/23 04:18:38;;;;;;;13.93;3.53;;;7.50;1.00;;;;;;7378284;19;20505;-69
2024/01/23 04:21:10;;;;;;;15.23;3.22;;;7.40;1.00;;;;;;7377618;19;20382;-69
2024/01/23 04:23:40;;;;;;;14.65;3.05;;;7.30;1.00;;;;;;7378362;19;20470;-69
2024/01/23 04:26:13;;;;;;;15.23;3.42;;;7.20;1.00;;;;;;7378809;19;20011;-69
2024/01/23 04:28:44;;;;;;;14.83;3.77;;;7.30;1.00;;;;;;7379656;19;20051;-69
2024/01/23 04:31:14;;;;;;;11.15;3.00;;;7.30;1.00;;;;;;7375967;19;20259;-70
2024/01/23 04:33:46;;;;;;;18.70;3.45;;;7.20;1.00;;;;;;7377740;19;20011;-70
2024/01/23 04:36:17;;;;;;;14.23;3.97;;;7.20;1.00;;;;;;7378370;19;20384;-70
2024/01/23 04:38:47;;;;;;;18.45;3.92;;;7.20;1.00;;;;;;7378261;19;20031;-70
2024/01/23 04:41:22;;;;;;;10.00;3.15;;;7.10;1.00;;;;;;7378713;19;20036;-69
2024/01/23 04:43:52;;;;;;;;;;;7.20;1.00;;;;;;7379386;19;20336;-70
2024/01/23 04:46:23;;;;;;;12.57;3.20;;;7.20;1.00;;;;;;7378300;19;19915;-69
2024/01/23 04:48:53;;;;;;;14.02;2.72;;;7.30;1.00;;;;;;7378172;19;20014;-69
2024/01/23 04:51:23;;;;;;;14.02;2.75;;;7.10;1.00;;;;;;7378165;19;20006;-70
2024/01/23 04:53:53;;;;;;;13.75;3.15;;;7.10;1.00;;;;;;7376919;19;20511;-70
2024/01/23 04:56:26;;;;;;;10.52;2.75;;;7.10;1.00;;;;;;7378669;19;20143;-70
2024/01/23 04:58:56;;;;;;;14.55;3.50;;;7.10;1.00;;;;;;7375878;19;20018;-69
2024/01/23 05:01:26;;;;;;;12.70;3.00;;;7.00;1.00;;;;;;7374976;19;20472;-70
2024/01/23 05:03:56;;;;;;;14.00;3.25;;;7.10;1.00;;;;;;7375159;19;20037;-69
2024/01/23 05:06:28;;;;;;;11.68;2.40;;;7.10;1.00;;;;;;7373611;19;20144;-69
2024/01/23 05:08:59;;;;;;;14.55;3.00;;;7.00;1.00;;;;;;7379000;19;20018;-70
2024/01/23 05:11:31;;;;;;;15.00;2.40;;;6.90;1.00;;;;;;7372764;19;20035;-70
2024/01/23 05:14:01;;;;;;;10.48;2.55;;;7.10;1.00;;;;;;7375095;19;20081;-71
2024/01/23 05:16:31;;;;;;;9.65;2.50;;;6.90;1.00;;;;;;7376897;19;20010;-70
2024/01/23 05:19:01;;;;;;;13.43;3.03;;;6.90;1.00;;;;;;7376720;19;20041;-70
2024/01/23 05:21:31;;;;;;;13.10;2.72;;;6.90;1.00;;;;;;7376208;19;20807;-70
2024/01/23 05:24:04;;;;;;;8.82;2.08;;;6.90;1.00;;;;;;7376771;19;20018;-70
2024/01/23 05:26:37;;;;;;;8.85;2.47;;;6.80;1.00;;;;;;7376771;19;20007;-70
2024/01/23 05:29:07;;;;;;;8.27;2.70;;;6.80;1.00;;;;;;7376082;19;20086;-70
2024/01/23 05:31:37;;;;;;;9.02;2.80;;;6.70;1.00;;;;;;7375825;19;20022;-69
2024/01/23 05:34:07;;;;;;;12.73;2.75;;;6.70;1.00;;;;;;7372116;19;20531;-70
2024/01/23 05:36:37;;;;;;;6.38;1.85;;;6.60;1.00;;;;;;7370767;19;20014;-71
2024/01/23 05:39:07;;;;;;;12.10;2.35;;;6.70;1.00;;;;;;7372408;19;20564;-71
2024/01/23 05:41:40;;;;;;;10.00;2.70;;;6.60;1.00;;;;;;7369979;19;20018;-70
2024/01/23 05:44:10;;;;;;;12.60;2.63;;;6.50;1.00;;;;;;7372950;19;20018;-69
2024/01/23 05:46:40;;;;;;;12.65;2.80;;;6.50;1.00;;;;;;7372537;19;20042;-70
2024/01/23 05:49:10;;;;;;;13.55;3.00;;;6.50;1.00;;;;;;7372020;19;20014;-70
2024/01/23 05:51:40;;;;;;;10.38;3.33;;;6.50;1.00;;;;;;7370966;19;20010;-71
2024/01/23 05:54:10;;;;;;;9.25;2.28;;;6.50;1.00;;;;;;7375004;19;20475;-70
2024/01/23 05:56:43;;;;;;;7.15;2.28;;;6.50;1.00;;;;;;7374948;19;20576;-70
2024/01/23 05:59:13;;;;;;;12.63;2.17;;;6.50;1.00;;;;;;7377891;19;20456;-70
2024/01/23 06:01:43;;;;;;;6.28;2.53;;;6.40;1.00;;;;;;7383016;19;20013;-70
2024/01/23 06:04:13;;;;;;;7.88;2.20;;;6.40;1.00;;;;;;7376931;19;20031;-70
2024/01/23 06:06:44;;;;;;;10.20;2.13;;;6.30;1.00;;;;;;7376463;19;20067;-70
2024/01/23 06:09:15;;;;;;;13.55;2.35;;;6.20;1.00;;;;;;7375844;19;20031;-70
2024/01/23 06:11:48;;;;;;;9.10;2.15;;;6.20;1.00;;;;;;7376642;19;20017;-70
2024/01/23 06:14:18;;;;;;;9.18;2.00;;;6.20;1.00;;;;;;7374938;19;20011;-70
2024/01/23 06:16:48;;;;;;;7.80;2.10;;;6.30;1.00;;;;;;7375708;19;20467;-70
2024/01/23 06:19:18;;;;;;;17.02;2.83;;;6.20;1.00;;;;;;7380085;19;20031;-70
2024/01/23 06:21:48;;;;;;;7.10;1.70;;;6.10;1.00;;;;;;7382196;19;20011;-70
2024/01/23 06:24:19;;;;;;;8.20;2.33;;;6.20;1.00;;;;;;7382095;19;20010;-69
2024/01/23 06:26:52;;;;;;;9.57;2.30;;;6.20;1.00;;;;;;7382902;19;20074;-70
2024/01/23 06:29:22;;;;;;;6.13;1.80;;;6.20;1.00;;;;;;7383415;19;20649;-70
2024/01/23 06:31:52;;;;;;;6.75;2.22;;;6.20;1.00;;;;;;7381738;19;20023;-70
2024/01/23 06:34:23;;;;;;;8.48;1.70;;;6.20;1.00;;;;;;7382256;19;20007;-69
2024/01/23 06:36:53;;;;;;;10.95;2.72;;;6.30;1.00;;;;;;7382143;19;20031;-69
2024/01/23 06:39:23;;;;;;;13.48;2.47;;;6.40;1.00;;;;;;7381861;19;20018;-69
2024/01/23 06:41:56;;;;;;;10.98;2.58;;;6.20;1.00;;;;;;7380177;19;20074;-69
2024/01/23 06:44:26;;;;;;;8.95;2.03;;;6.10;1.00;;;;;;7381759;19;20043;-69
2024/01/23 06:46:56;;;;;;;9.25;2.47;;;6.00;1.00;;;;;;7381871;19;20011;-70
2024/01/23 06:49:26;;;;;;;7.75;2.00;;;6.00;1.00;;;;;;7381053;19;20014;-69
2024/01/23 06:51:56;;;;;;;5.72;1.88;;;5.90;1.00;;;;;;7381307;19;20074;-70
2024/01/23 06:54:26;;;;;;;8.07;1.88;;;5.90;1.00;;;;;;7382721;19;20015;-71
2024/01/23 06:56:59;;;;;;;5.28;1.83;;;5.80;1.00;;;;;;7380402;19;20014;-69
2024/01/23 06:59:29;;;;;;;8.07;2.15;;;5.90;1.00;;;;;;7382254;19;20022;-69
2024/01/23 07:01:59;;;;;;;8.05;2.47;;;5.80;1.00;;;;;;7379382;19;20023;-70
2024/01/23 07:04:30;;;;;;;11.45;2.50;;;5.80;1.00;;;;;;7379981;19;20043;-69
2024/01/23 07:07:00;;;;;;;9.13;2.33;;;5.80;1.00;;;;;;7380613;19;20109;-70
2024/01/23 07:09:30;;;;;;;5.93;1.63;;;5.80;1.00;;;;;;7379839;19;22582;-69
2024/01/23 07:12:03;;;;;;;5.60;1.80;;;5.70;1.00;;;;;;7377264;19;20022;-68
2024/01/23 07:14:33;;;;;;;5.90;1.80;;;5.60;1.00;;;;;;7379850;19;20010;-69
2024/01/23 07:17:03;;;;;;;6.10;1.40;;;5.60;1.00;;;;;;7380364;19;20476;-69
2024/01/23 07:19:33;;;;;;;5.93;1.67;;;5.50;1.00;;;;;;7380439;19;20349;-69
2024/01/23 07:22:03;;;;;;;9.27;2.53;;;5.60;1.00;;;;;;7380963;19;20021;-70
2024/01/23 07:24:33;;;;;;;7.43;1.70;;;5.50;1.00;;;;;;7379163;19;20015;-68
2024/01/23 07:27:06;;;;;;;7.43;1.73;;;5.50;1.00;;;;;;7380744;19;20046;-68
2024/01/23 07:29:38;;;;;;;9.52;2.13;;;5.60;1.00;;;;;;7377609;19;20010;-69
2024/01/23 07:32:09;;;;;;;8.95;1.98;;;5.70;1.00;;;;;;7378017;19;20014;-68
2024/01/23 07:34:38;;;;;;;8.70;2.05;;;5.80;1.00;;;;;;7376201;19;20011;-69
2024/01/23 07:37:09;;;;;;;7.82;1.70;;;5.90;1.00;;;;;;7377464;19;20017;-69
2024/01/23 07:39:39;;;;;;;10.05;2.50;;;5.90;1.00;;;;;;7380991;19;20018;-68
2024/01/23 07:42:13;;;;;;;10.75;2.83;;;6.00;1.00;;;;;;7380941;19;20027;-69
2024/01/23 07:44:45;;;;;;;10.73;2.20;;;5.90;1.00;;;;;;7378324;19;20011;-69
2024/01/23 07:47:16;;;;;;;11.13;2.10;;;6.00;1.00;;;;;;7380596;19;20003;-68
2024/01/23 07:49:45;;;;;;;7.95;2.40;;;5.90;1.00;;;;;;7379270;19;20015;-69
2024/01/23 07:52:19;;;;;;;10.43;2.63;;;6.00;1.00;;;;;;7378258;19;20808;-69
2024/01/23 07:54:50;;;;;;;8.35;2.70;;;6.10;1.00;;;;;;7378222;19;20014;-68
2024/01/23 07:57:23;;;;;;;10.75;2.28;;;6.10;1.00;;;;;;7379866;19;20081;-68
2024/01/23 07:59:53;;;;;;;15.50;3.03;;;6.10;1.00;;;;;;7376350;19;20002;-68
2024/01/23 08:02:24;;;;;;;6.57;2.20;;;6.00;1.00;;;;;;7377525;19;20010;-69
2024/01/23 08:04:54;;;;;;;8.32;2.22;;;6.00;1.00;;;;;;7378623;19;20031;-69
2024/01/23 08:07:24;;;;;;;15.10;2.88;;;6.10;1.00;;;;;;7378794;19;20010;-68
2024/01/23 08:09:54;;;;;;;12.18;3.40;;;6.10;1.00;;;;;;7379689;19;20010;-69
2024/01/23 08:12:27;;;;;;;9.25;2.83;;;6.10;1.00;;;;;;7379534;19;20014;-69
2024/01/23 08:14:57;;;;;;;12.82;3.45;;;6.20;1.00;;;;;;7378451;19;20074;-69
2024/01/23 08:17:27;;;;;;;12.50;2.85;;;6.20;1.00;;;;;;7377405;19;20007;-69
2024/01/23 08:19:57;;;;;;;12.80;3.00;;;6.20;1.00;;;;;;7379030;19;20013;-70
2024/01/23 08:22:27;;;;;;;14.95;2.40;;;6.20;1.00;;;;;;7378723;19;20351;-68
2024/01/23 08:24:58;;;;;;;10.40;2.70;;;6.30;1.00;;;;;;7380895;19;20010;-69
2024/01/23 08:27:30;;;;;;;10.27;2.58;;;6.30;1.00;;;;;;7383443;19;20434;-69
2024/01/23 08:30:01;;;;;;;14.75;3.10;;;6.40;1.00;;;;;;7377490;19;20014;-69
2024/01/23 08:32:31;;;;;;;13.65;2.65;;;6.40;1.00;;;;;;7378831;19;20010;-68
2024/01/23 08:35:01;;;;;;;7.57;2.70;;;6.40;1.00;;;;;;7376209;19;20091;-69
2024/01/23 08:37:31;;;;;;;8.90;3.40;;;6.40;1.00;;;;;;7379252;19;20010;-69
2024/01/23 08:40:01;;;;;;;12.23;3.10;;;6.30;1.00;;;;;;7378147;19;20011;-68
2024/01/23 08:42:34;;;;;;;12.45;3.30;;;6.30;1.00;;;;;;7377742;19;20014;-69
2024/01/23 08:45:04;;;;;;;12.05;2.92;;;6.40;1.00;;;;;;7378200;19;20015;-69
2024/01/23 08:47:34;;;;;;;15.77;2.75;;;6.50;1.00;;;;;;7379032;19;20022;-69
2024/01/23 08:50:05;;;;;;;12.13;2.80;;;6.40;1.00;;;;;;7378005;19;20083;-69
2024/01/23 08:52:35;;;;;;;13.23;3.15;;;6.50;1.00;;;;;;7377443;19;20017;-68
2024/01/23 08:55:05;;;;;;;11.98;2.85;;;6.60;1.00;;;;;;7375408;19;20474;-69
2024/01/23 08:57:38;;;;;;;13.38;3.08;;;6.70;1.00;;;;;;7377003;19;20496;-69
2024/01/23 09:00:11;;;;;;;12.07;3.10;;;6.80;1.00;;;;;;7375169;19;20011;-69
2024/01/23 09:02:41;;;;;;;11.05;3.05;;;6.80;1.00;;;;;;7376429;19;20361;-69
2024/01/23 09:05:11;;;;;;;16.23;3.72;;;6.80;1.00;;;;;;7375652;19;20444;-69
2024/01/23 09:07:41;;;;;;;15.95;4.20;;;6.80;1.00;;;;;;7377437;19;20010;-70
2024/01/23 09:10:11;;;;;;;10.30;2.80;;;6.90;1.00;;;;;;7375194;19;20077;-70
2024/01/23 09:12:44;;;;;;;11.45;3.03;;;6.90;1.00;;;;;;7376680;19;20018;-69
2024/01/23 09:15:15;;;;;;;15.23;2.95;;;7.00;1.00;;;;;;7376230;19;23593;-70
2024/01/23 09:17:45;;;;;;;15.20;3.22;;;7.00;1.00;;;;;;7376566;19;20010;-70
2024/01/23 09:20:17;;;;;;;8.88;2.58;;;6.90;1.00;;;;;;7375021;19;20014;-68
2024/01/23 09:22:49;;;;;;;14.57;3.65;;;7.10;1.00;;;;;;7376425;19;20018;-69
2024/01/23 09:25:20;;;;;;;15.95;3.90;;;7.10;1.00;;;;;;7377704;19;20014;-68
2024/01/23 09:27:52;;;;;;;15.25;3.25;;;7.10;1.00;;;;;;7376379;19;20113;-69
2024/01/23 09:30:24;;;;;;;12.55;3.50;;;7.10;1.00;;;;;;7378063;19;20078;-70
2024/01/23 09:32:58;;;;;;;9.13;3.13;;;7.20;1.00;;;;;;7372101;19;20076;-70
2024/01/23 09:35:29;;;;;;;8.05;2.33;;;7.20;1.00;;;;;;7377632;19;20204;-69
2024/01/23 09:38:00;;;;;;;17.02;2.90;;;7.10;1.00;;;;;;7376797;19;20018;-69
2024/01/23 09:40:30;;;;;;;11.40;2.83;;;7.20;1.00;;;;;;7375504;19;20812;-69
2024/01/23 09:43:04;;;;;;;14.93;3.60;;;7.20;1.00;;;;;;7374689;19;20372;-69
2024/01/23 09:45:37;;;;;;;9.48;2.80;;;7.30;1.00;;;;;;7375202;19;20014;-68
2024/01/23 09:48:08;;;;;;;13.65;3.83;;;7.30;1.00;;;;;;7371181;19;20043;-68
2024/01/23 09:50:41;;;;;;;14.30;3.78;;;7.30;1.00;;;;;;7374399;19;20483;-68
2024/01/23 09:53:13;;;;;;;11.48;2.88;;;7.30;1.00;;;;;;7374655;19;20011;-69
2024/01/23 09:55:43;;;;;;;13.45;3.00;;;7.30;1.00;;;;;;7375422;19;20073;-70
2024/01/23 09:58:16;;;;;;;9.57;2.88;;;7.30;1.00;;;;;;7375759;19;20025;-69
2024/01/23 10:00:46;;;;;;;11.77;2.72;;;7.40;1.00;;;;;;7373923;19;20014;-70
2024/01/23 10:03:17;;;;;;;9.00;2.75;;;7.40;1.00;;;;;;7375505;19;20006;-70
2024/01/23 10:05:47;;;;;;;11.18;3.03;;;7.40;1.00;;;;;;7375483;19;20076;-70
2024/01/23 10:08:17;;;;;;;6.20;2.45;;;7.40;1.00;;;;;;7375367;19;20371;-70
2024/01/23 10:10:47;;;;;;;9.02;2.60;;;7.40;1.00;;;;;;7373824;19;20021;-69
2024/01/23 10:13:20;;;;;;;14.90;2.70;;;7.40;1.00;;;;;;7375366;19;20018;-69
2024/01/23 10:15:50;;;;;;;11.57;3.83;;;7.40;1.00;;;;;;7374619;19;20531;-69
2024/01/23 10:18:21;;;;;;;10.60;2.67;;;7.40;1.00;;;;;;7375161;19;20106;-69
2024/01/23 10:20:53;;;;;;;12.65;2.55;;;7.40;1.00;;;;;;7374278;19;20035;-69
2024/01/23 10:23:23;;;;;;;13.35;3.28;;;7.40;1.00;;;;;;7375544;19;20436;-69
2024/01/23 10:25:54;;;;;;;9.95;3.10;;;7.40;1.00;;;;;;7374306;19;20011;-68
2024/01/23 10:28:27;;;;;;;14.40;3.03;;;7.40;1.00;;;;;;7374959;19;21521;-69
2024/01/23 10:30:58;;;;;;;13.23;3.13;;;7.40;1.00;;;;;;7373698;19;20050;-68
2024/01/23 10:33:28;;;;;;;13.48;3.33;;;7.30;1.00;;;;;;7375972;19;20332;-68
2024/01/23 10:35:59;;;;;;;15.63;3.03;;;7.30;1.00;;;;;;7372572;19;20014;-70
2024/01/23 10:38:30;;;;;;;19.13;3.70;;;7.30;1.00;;;;;;7376836;19;20418;-70
2024/01/23 10:41:01;;;;;;;14.90;3.33;;;7.30;1.00;;;;;;7373683;19;20031;-69
2024/01/23 10:43:35;;;;;;;15.35;3.65;;;7.20;1.00;;;;;;7373854;19;20040;-69
2024/01/23 10:46:06;;;;;;;10.18;3.17;;;7.30;1.00;;;;;;7363717;19;20630;-69
2024/01/23 10:48:36;;;;;;;9.52;2.53;;;7.20;1.00;;;;;;7375561;19;20409;-69
2024/01/23 10:51:19;;;;;;;12.55;2.92;;;7.20;1.00;;;;;;7382107;19;20673;-69
2024/01/23 10:53:57;;;;;;;13.02;3.20;;;7.30;1.00;;;;;;7378718;19;20017;-69
2024/01/23 10:56:32;;;;;;;10.70;2.58;;;7.40;1.00;;;;;;7373785;19;20018;-69
2024/01/23 10:59:11;;;;;;;8.20;3.15;;;7.40;1.00;;;;;;7370328;19;20025;-70
2024/01/23 11:01:48;;;;;;;;;;;7.50;1.00;;;;;;6864325;19;2004168;-69
2024/01/23 11:04:18;;;;;;;10.30;2.80;;;7.50;1.00;;;;;;7373229;19;19914;-69
2024/01/23 11:06:54;;;;;;;16.20;2.75;;;7.50;1.00;;;;;;7379896;19;20023;-70
2024/01/23 11:09:29;;;;;;;12.60;2.60;;;7.60;1.00;;;;;;7380644;19;20006;-69
2024/01/23 11:12:06;;;;;;;10.43;2.53;;;7.80;1.00;;;;;;7380841;19;20926;-70
2024/01/23 11:14:46;;;;;;;14.30;3.78;;;7.90;1.00;;;;;;7379583;19;20013;-69
2024/01/23 11:17:17;;;;;;;10.32;2.50;;;8.00;1.00;;;;;;7379257;19;20011;-69
2024/01/23 11:19:49;;;;;;;13.20;2.60;;;8.20;1.00;;;;;;7380030;19;20018;-70
2024/01/23 11:22:24;;;;;;;11.75;3.45;;;8.30;1.00;;;;;;7379067;19;20496;-69
2024/01/23 11:24:54;;;;;;;15.35;2.95;;;8.40;1.00;;;;;;7379954;19;20013;-69
2024/01/23 11:27:27;;;;;;;10.70;2.53;;;8.50;1.00;;;;;;7379832;19;20126;-69
2024/01/23 11:30:01;;;;;;;14.57;2.70;;;8.50;1.00;;;;;;7379407;19;20018;-68
2024/01/23 11:32:32;;;;;;;10.90;3.25;;;8.50;1.00;;;;;;7380115;19;20483;-69
2024/01/23 11:35:05;;;;;;;14.73;3.25;;;8.60;1.00;;;;;;7380059;19;20006;-69
2024/01/23 11:37:51;;;;;;;14.90;2.88;;;8.60;1.00;;;;;;7379011;19;20037;-68
2024/01/23 11:40:42;;;;;;;13.27;2.85;;;8.60;1.00;;;;;;6868029;19;2004008;-69
2024/01/23 11:43:25;;;;;;;10.23;2.90;;;8.80;1.00;;;;;;7376907;19;20469;-69
2024/01/23 11:45:58;;;;;;;12.82;2.92;;;8.80;1.00;;;;;;7378936;19;20103;-67
2024/01/23 11:48:29;;;;;;;8.82;2.50;;;9.00;1.00;;;;;;7384639;19;20086;-71
2024/01/23 11:51:00;;;;;;;13.32;2.80;;;9.10;1.00;;;;;;7378697;19;20014;-69
2024/01/23 11:53:32;;;;;;;9.65;2.72;;;9.20;1.00;;;;;;7380481;19;20359;-69
2024/01/23 11:56:03;;;;;;;9.18;2.72;;;9.20;1.00;;;;;;7378413;19;20014;-68
2024/01/23 11:58:33;;;;;;;14.00;3.45;;;9.20;1.00;;;;;;7377669;19;20007;-68
2024/01/23 12:01:07;;;;;;;17.02;3.53;;;9.30;1.00;;;;;;7377750;19;20078;-69
2024/01/23 12:03:37;;;;;;;12.02;2.95;;;9.30;1.00;;;;;;7378331;19;20019;-68
2024/01/23 12:06:07;;;;;;;17.55;3.00;;;9.20;1.00;;;;;;7379983;19;20018;-68
2024/01/23 12:08:38;;;;;;;12.32;2.80;;;9.30;1.00;;;;;;7378639;19;20057;-69
2024/01/23 12:11:09;;;;;;;10.68;2.55;;;9.30;1.00;;;;;;7379203;19;20013;-68
2024/01/23 12:13:39;;;;;;;12.35;3.17;;;9.40;1.00;;;;;;7375773;19;20027;-69
2024/01/23 12:16:12;;;;;;;9.70;2.72;;;9.20;1.00;;;;;;7375215;19;20006;-69
2024/01/23 12:18:42;;;;;;;8.32;2.40;;;9.40;1.00;;;;;;7379944;19;20699;-68
2024/01/23 12:21:12;;;;;;;7.53;2.33;;;9.30;1.00;;;;;;7379287;19;20392;-68
2024/01/23 12:23:43;;;;;;;11.35;2.30;;;9.30;1.00;;;;;;7378446;19;20002;-69
2024/01/23 12:26:13;;;;;;;12.25;2.85;;;9.00;1.00;;;;;;7379080;19;20491;-69
2024/01/23 12:28:44;;;;;;;11.77;2.88;;;8.90;1.00;;;;;;7378017;19;20077;-69
2024/01/23 12:31:17;;;;;;;14.05;3.00;;;8.90;1.00;;;;;;7377753;19;20014;-70
2024/01/23 12:33:47;;;;;;;8.88;2.65;;;8.80;1.00;;;;;;7379222;19;20032;-69
2024/01/23 12:36:17;;;;;;;32.90;17.55;;;8.90;1.00;;;;;;7378483;19;20045;-69
2024/01/23 12:38:47;;;;;;;8.07;2.40;;;8.90;1.00;;;;;;7381024;19;20014;-68
2024/01/23 12:41:18;;;;;;;11.13;2.50;;;8.90;1.00;;;;;;7378944;19;20011;-70
2024/01/23 12:43:48;;;;;;;8.98;2.17;;;8.90;1.00;;;;;;7380299;19;20014;-69
2024/01/23 12:46:21;;;;;;;8.45;2.47;;;8.90;1.00;;;;;;7379109;19;20011;-69
2024/01/23 12:48:55;;;;;;;16.70;3.47;;;8.80;1.00;;;;;;7369148;19;20691;-70
2024/01/23 12:51:27;;;;;;;16.27;2.60;;;8.80;1.00;;;;;;7375632;19;20029;-69
2024/01/23 12:53:59;;;;;;;9.85;2.25;;;8.80;1.00;;;;;;7376302;19;20373;-68
2024/01/23 12:56:29;;;;;;;12.57;3.13;;;8.80;1.00;;;;;;7375257;19;20015;-68
2024/01/23 12:58:59;;;;;;;7.43;2.13;;;8.80;1.00;;;;;;7377016;19;19998;-69
2024/01/23 13:01:32;;;;;;;9.23;2.47;;;8.80;1.00;;;;;;7377539;19;20015;-69
2024/01/23 13:04:02;;;;;;;9.77;2.38;;;8.70;1.00;;;;;;7376801;19;20010;-69
2024/01/23 13:06:33;;;;;;;9.82;2.35;;;8.70;1.00;;;;;;7377870;19;20011;-69
2024/01/23 13:09:03;;;;;;;19.02;8.70;;;8.60;1.00;;;;;;7377386;19;20007;-69
2024/01/23 13:11:33;;;;;;;10.25;2.50;;;8.60;1.00;;;;;;7376682;19;20010;-69
2024/01/23 13:14:03;;;;;;;13.50;2.67;;;8.60;1.00;;;;;;7382126;19;20351;-69
2024/01/23 13:16:36;;;;;;;7.32;2.22;;;8.50;1.00;;;;;;7382007;19;20006;-70
2024/01/23 13:19:06;;;;;;;9.38;2.20;;;8.40;1.00;;;;;;7375668;19;20027;-69
2024/01/23 13:21:36;;;;;;;7.13;2.28;;;8.30;1.00;;;;;;7375213;19;20370;-69
2024/01/23 13:24:07;;;;;;;8.60;2.40;;;8.30;1.00;;;;;;7376108;19;20014;-69